Time;durP1;ratioP1;P1;durP2;ratioP2;P2;SDS_P1;SDS_P2;PMS_P1;PMS_P2;Temp;Humidity;BMP_temperature;BMP_pressure;BME280_temperature;BME280_humidity;BME280_pressure;Samples;Min_cycle;Max_cycle;Signal;HPM_P1;HPM_P2
2023/02/10 00:01:14;;;;;;;50.05;26.88;;;-1.70;70.60;;;;;;4995429;28;20038;-74
2023/02/10 00:03:41;;;;;;;51.92;26.67;;;-1.70;71.10;;;;;;4995354;28;20458;-74
2023/02/10 00:06:07;;;;;;;54.47;27.50;;;-1.70;70.90;;;;;;4995375;28;20026;-75
2023/02/10 00:08:33;;;;;;;48.80;26.67;;;-1.70;70.60;;;;;;4995286;28;20049;-75
2023/02/10 00:11:01;;;;;;;48.40;27.23;;;-1.60;70.20;;;;;;4995254;28;20479;-73
2023/02/10 00:13:28;;;;;;;54.25;28.27;;;-1.70;70.10;;;;;;4995107;28;20049;-73
2023/02/10 00:15:53;;;;;;;52.10;27.90;;;-1.70;70.10;;;;;;4995171;28;20030;-73
2023/02/10 00:18:20;;;;;;;48.25;26.77;;;-1.80;69.90;;;;;;4995010;28;20033;-73
2023/02/10 00:20:45;;;;;;;49.67;26.67;;;-1.80;70.00;;;;;;4995067;28;20050;-73
2023/02/10 00:23:11;;;;;;;51.00;26.67;;;-1.80;70.10;;;;;;4995041;28;20482;-75
2023/02/10 00:25:37;;;;;;;44.50;25.27;;;-1.80;70.30;;;;;;4994849;28;20050;-74
2023/02/10 00:28:04;;;;;;;44.08;24.20;;;-1.90;70.60;;;;;;4977323;28;20042;-73
2023/02/10 00:30:30;;;;;;;39.40;22.45;;;-1.80;70.70;;;;;;4977479;28;20022;-73
2023/02/10 00:32:56;;;;;;;41.63;23.08;;;-1.90;70.90;;;;;;4994967;28;20034;-74
2023/02/10 00:35:23;;;;;;;39.58;22.70;;;-1.80;71.60;;;;;;4994891;28;20109;-74
2023/02/10 00:37:48;;;;;;;44.78;23.65;;;-1.90;70.90;;;;;;4994603;28;20018;-74
2023/02/10 00:40:14;;;;;;;44.47;25.02;;;-1.80;70.90;;;;;;4994581;28;20031;-74
2023/02/10 00:42:40;;;;;;;49.63;25.88;;;-1.80;70.70;;;;;;4994552;28;20065;-74
2023/02/10 00:45:06;;;;;;;50.47;27.23;;;-1.70;70.80;;;;;;4994498;28;20038;-74
2023/02/10 00:47:31;;;;;;;56.20;28.30;;;-1.80;70.40;;;;;;4994506;28;20523;-74
2023/02/10 00:49:57;;;;;;;50.58;27.85;;;-1.80;70.00;;;;;;4994602;28;20654;-74
2023/02/10 00:52:23;;;;;;;58.58;28.35;;;-1.90;69.70;;;;;;4977423;28;20022;-74
2023/02/10 00:54:49;;;;;;;53.85;28.45;;;-2.10;70.10;;;;;;4994906;28;20030;-74
2023/02/10 00:57:14;;;;;;;45.42;25.67;;;-2.10;70.70;;;;;;4994880;28;20121;-75
2023/02/10 00:59:40;;;;;;;51.63;26.30;;;-2.10;70.70;;;;;;4994243;28;20105;-74
2023/02/10 01:02:06;;;;;;;50.85;26.80;;;-2.00;70.50;;;;;;4976792;28;20037;-73
2023/02/10 01:04:32;;;;;;;50.47;27.65;;;-2.00;70.30;;;;;;4994140;28;20076;-74
2023/02/10 01:06:57;;;;;;;49.13;26.85;;;-2.00;71.30;;;;;;4993725;28;20615;-74
2023/02/10 01:09:23;;;;;;;58.13;28.27;;;-2.00;70.40;;;;;;4993438;28;20030;-75
2023/02/10 01:11:48;;;;;;;52.10;27.33;;;-2.00;70.30;;;;;;4994134;28;20571;-73
2023/02/10 01:14:14;;;;;;;54.03;27.73;;;-2.10;70.90;;;;;;4994131;28;20022;-73
2023/02/10 01:16:40;;;;;;;52.25;27.55;;;-2.10;71.30;;;;;;4993983;28;20471;-75
2023/02/10 01:19:06;;;;;;;50.08;27.38;;;-2.10;72.40;;;;;;4993923;28;20018;-73
2023/02/10 01:21:31;;;;;;;49.42;25.58;;;-2.00;71.50;;;;;;4976494;28;20181;-75
2023/02/10 01:23:57;;;;;;;51.30;27.77;;;-2.00;71.50;;;;;;4993636;28;20033;-75
2023/02/10 01:26:23;;;;;;;55.45;28.00;;;-2.00;71.20;;;;;;4993921;28;20031;-73
2023/02/10 01:28:48;;;;;;;53.40;28.42;;;-2.00;71.30;;;;;;4976378;28;20419;-73
2023/02/10 01:31:17;;;;;;;54.85;27.83;;;-2.00;71.40;;;;;;4993869;28;20018;-73
2023/02/10 01:33:43;;;;;;;50.40;28.08;;;-1.90;71.20;;;;;;4993804;28;20019;-73
2023/02/10 01:36:12;;;;;;;49.85;27.38;;;-1.80;70.70;;;;;;4993779;28;20384;-73
2023/02/10 01:38:38;;;;;;;52.17;27.38;;;-1.80;70.20;;;;;;4993735;28;20052;-75
2023/02/10 01:41:05;;;;;;;52.72;28.85;;;-2.00;69.80;;;;;;4976340;28;20030;-73
2023/02/10 01:43:31;;;;;;;55.90;27.83;;;-2.00;70.10;;;;;;4993778;28;20033;-73
2023/02/10 01:45:56;;;;;;;56.13;28.95;;;-2.10;70.40;;;;;;4993645;28;20039;-73
2023/02/10 01:48:24;;;;;;;54.83;28.80;;;-2.20;71.30;;;;;;4993591;28;20073;-75
2023/02/10 01:50:57;;;;;;;56.92;28.20;;;-2.30;71.70;;;;;;4993452;28;20061;-73
2023/02/10 01:53:24;;;;;;;55.35;30.38;;;-2.30;72.00;;;;;;4976040;28;20117;-74
2023/02/10 01:55:52;;;;;;;50.67;27.73;;;-2.30;72.30;;;;;;4993584;28;20019;-74
2023/02/10 01:58:22;;;;;;;58.55;30.80;;;-2.30;72.60;;;;;;4993648;28;20622;-74
2023/02/10 02:00:48;;;;;;;53.83;28.33;;;-2.40;72.40;;;;;;4993154;28;20022;-75
2023/02/10 02:03:14;;;;;;;59.55;30.13;;;-2.40;72.50;;;;;;4993458;28;20084;-74
2023/02/10 02:05:42;;;;;;;58.42;30.17;;;-2.40;72.60;;;;;;4993258;28;20414;-73
2023/02/10 02:08:17;;;;;;;60.75;30.60;;;-2.40;72.80;;;;;;4993193;28;20029;-73
2023/02/10 02:10:54;;;;;;;63.83;30.95;;;-2.50;73.10;;;;;;4993455;28;20470;-73
2023/02/10 02:13:45;;;;;;;56.10;30.13;;;-2.50;73.20;;;;;;4993343;28;20408;-73
2023/02/10 02:16:36;;;;;;;55.53;29.42;;;-2.50;73.20;;;;;;4993069;28;20034;-73
2023/02/10 02:19:19;;;;;;;55.90;28.63;;;-2.40;73.00;;;;;;4993981;28;20309;-73
2023/02/10 02:22:09;;;;;;;52.45;28.63;;;-2.40;72.80;;;;;;4979730;28;20030;-73
2023/02/10 02:25:15;;;;;;;55.55;28.33;;;-2.30;72.70;;;;;;4997136;28;20029;-73
2023/02/10 02:28:18;;;;;;;63.58;31.33;;;-2.30;72.80;;;;;;4979423;28;20053;-76
2023/02/10 02:31:04;;;;;;;58.13;31.15;;;-2.30;73.00;;;;;;4997129;28;20018;-74
2023/02/10 02:33:57;;;;;;;61.28;30.52;;;-2.30;73.20;;;;;;4997048;28;20027;-78
2023/02/10 02:36:28;;;;;;;56.08;30.58;;;-2.40;73.30;;;;;;4997089;28;20041;-77
2023/02/10 02:38:59;;;;;;;60.30;31.55;;;-2.40;73.40;;;;;;4997035;28;20019;-78
2023/02/10 02:41:26;;;;;;;57.83;30.67;;;-2.50;73.20;;;;;;4996947;28;20494;-77
2023/02/10 02:43:52;;;;;;;57.78;31.08;;;-2.50;73.50;;;;;;4996735;28;20037;-76
2023/02/10 02:46:37;;;;;;;54.78;31.02;;;-2.60;73.80;;;;;;4996643;28;20372;-76
2023/02/10 02:49:08;;;;;;;63.67;32.70;;;-2.60;74.70;;;;;;4996732;28;20026;-77
2023/02/10 02:51:45;;;;;;;58.45;31.38;;;-2.60;74.10;;;;;;4996763;28;20662;-74
2023/02/10 02:54:26;;;;;;;57.38;29.77;;;-2.60;74.40;;;;;;4996578;28;20042;-73
2023/02/10 02:57:06;;;;;;;51.38;29.27;;;-2.60;74.40;;;;;;4979247;28;20022;-73
2023/02/10 02:59:39;;;;;;;64.80;32.33;;;-2.50;74.30;;;;;;4996700;28;20565;-74
2023/02/10 03:02:07;;;;;;;58.65;30.40;;;-2.50;74.00;;;;;;4996715;28;20463;-74
2023/02/10 03:04:34;;;;;;;61.63;31.15;;;-2.50;73.60;;;;;;4996628;28;20356;-73
2023/02/10 03:07:01;;;;;;;60.25;31.92;;;-2.60;73.60;;;;;;4996507;28;20022;-74
2023/02/10 03:09:27;;;;;;;61.78;32.63;;;-2.60;73.70;;;;;;4996533;28;20030;-74
2023/02/10 03:11:53;;;;;;;54.28;29.88;;;-2.50;73.60;;;;;;4996314;28;20018;-73
2023/02/10 03:14:19;;;;;;;56.88;29.75;;;-2.50;73.50;;;;;;4996247;28;20026;-74
2023/02/10 03:16:45;;;;;;;64.22;30.55;;;-2.50;73.30;;;;;;4996229;28;20395;-75
2023/02/10 03:19:11;;;;;;;59.50;30.52;;;-2.50;72.90;;;;;;4996299;28;20078;-74
2023/02/10 03:21:36;;;;;;;60.53;31.15;;;-2.50;72.90;;;;;;4995912;28;20042;-74
2023/02/10 03:24:02;;;;;;;63.45;30.83;;;-2.50;73.60;;;;;;4996225;28;20038;-74
2023/02/10 03:26:29;;;;;;;56.60;30.95;;;-2.60;74.30;;;;;;4978430;28;20030;-73
2023/02/10 03:28:54;;;;;;;59.83;30.63;;;-2.70;74.80;;;;;;4995834;28;20054;-74
2023/02/10 03:31:20;;;;;;;56.55;30.70;;;-2.70;74.80;;;;;;4994852;28;20073;-73
2023/02/10 03:33:46;;;;;;;64.53;32.03;;;-2.70;74.60;;;;;;4996057;28;20041;-74
2023/02/10 03:36:11;;;;;;;59.67;32.45;;;-2.60;74.70;;;;;;4996016;28;20030;-73
2023/02/10 03:38:37;;;;;;;57.42;31.75;;;-2.70;74.80;;;;;;4978423;28;20023;-73
2023/02/10 03:41:03;;;;;;;62.90;31.42;;;-2.70;74.90;;;;;;4995830;28;20026;-73
2023/02/10 03:43:28;;;;;;;59.63;31.38;;;-2.70;74.90;;;;;;4995694;28;20026;-73
2023/02/10 03:45:54;;;;;;;59.53;31.98;;;-2.70;74.80;;;;;;4995785;28;20035;-73
2023/02/10 03:48:21;;;;;;;65.28;32.28;;;-2.80;75.00;;;;;;4978089;28;20033;-73
2023/02/10 03:50:48;;;;;;;57.50;31.25;;;-2.80;75.30;;;;;;4995618;28;20031;-74
2023/02/10 03:53:14;;;;;;;64.60;32.97;;;-2.70;76.10;;;;;;4995554;28;20027;-74
2023/02/10 03:55:39;;;;;;;60.50;30.60;;;-2.70;76.10;;;;;;4978024;28;20034;-73
2023/02/10 03:58:05;;;;;;;60.10;31.70;;;-2.70;76.30;;;;;;4995371;28;20077;-74
2023/02/10 04:00:31;;;;;;;62.42;32.00;;;-2.70;77.10;;;;;;4995538;28;20050;-75
2023/02/10 04:02:56;;;;;;;58.88;30.95;;;-2.70;76.10;;;;;;4995470;28;20030;-74
2023/02/10 04:05:22;;;;;;;56.55;30.88;;;-2.90;76.10;;;;;;4995401;28;20030;-76
2023/02/10 04:07:48;;;;;;;57.90;32.55;;;-3.00;76.60;;;;;;4995308;28;20502;-74
2023/02/10 04:10:13;;;;;;;57.72;31.25;;;-3.00;77.00;;;;;;4995384;28;20030;-76
2023/02/10 04:12:39;;;;;;;60.40;31.88;;;-2.90;77.10;;;;;;4995125;28;20038;-75
2023/02/10 04:15:06;;;;;;;64.28;32.20;;;-2.80;76.80;;;;;;4994999;28;20038;-77
2023/02/10 04:17:31;;;;;;;64.63;33.75;;;-2.90;76.80;;;;;;4995048;28;20033;-74
2023/02/10 04:19:57;;;;;;;62.03;32.80;;;-3.00;77.00;;;;;;4995109;28;20034;-74
2023/02/10 04:22:22;;;;;;;67.57;33.47;;;-3.00;77.00;;;;;;4977482;28;20050;-74
2023/02/10 04:24:48;;;;;;;74.32;35.08;;;-2.90;76.80;;;;;;5000897;28;20026;-74
2023/02/10 04:27:13;;;;;;;63.60;31.65;;;-3.00;76.70;;;;;;5014350;28;20042;-74
2023/02/10 04:29:40;;;;;;;67.72;34.53;;;-3.00;76.90;;;;;;5014031;28;20557;-73
2023/02/10 04:32:06;;;;;;;63.40;34.28;;;-3.10;77.10;;;;;;5014309;28;20028;-78
2023/02/10 04:34:32;;;;;;;62.60;32.75;;;-3.10;76.90;;;;;;5014061;28;20394;-76
2023/02/10 04:36:58;;;;;;;66.85;33.55;;;-3.10;77.10;;;;;;5014265;28;20041;-78
2023/02/10 04:39:23;;;;;;;66.78;33.25;;;-3.10;77.10;;;;;;5014274;28;20372;-74
2023/02/10 04:41:49;;;;;;;60.58;33.38;;;-3.10;77.30;;;;;;5014147;28;20506;-76
2023/02/10 04:44:14;;;;;;;63.42;34.38;;;-3.00;77.20;;;;;;4996496;28;20114;-74
2023/02/10 04:46:40;;;;;;;67.30;36.53;;;-3.00;77.10;;;;;;5013997;28;20026;-75
2023/02/10 04:49:06;;;;;;;65.88;36.78;;;-2.90;76.80;;;;;;5014021;28;20030;-74
2023/02/10 04:51:31;;;;;;;63.17;33.67;;;-3.00;76.50;;;;;;5013914;28;20471;-75
2023/02/10 04:53:57;;;;;;;60.03;32.67;;;-2.90;76.40;;;;;;4996254;28;20072;-74
2023/02/10 04:56:22;;;;;;;68.25;35.28;;;-3.00;76.10;;;;;;5013934;28;20025;-74
2023/02/10 04:58:48;;;;;;;72.63;34.47;;;-3.00;76.10;;;;;;5013912;28;20075;-74
2023/02/10 05:01:13;;;;;;;70.15;34.38;;;-3.00;75.90;;;;;;5013875;28;20022;-74
2023/02/10 05:03:39;;;;;;;60.97;32.92;;;-3.00;75.80;;;;;;5013801;28;20040;-74
2023/02/10 05:06:10;;;;;;;66.20;36.50;;;-3.00;75.80;;;;;;5013766;28;20033;-74
2023/02/10 05:08:40;;;;;;;61.72;33.30;;;-3.00;76.20;;;;;;5013673;28;20033;-74
2023/02/10 05:11:06;;;;;;;66.97;34.33;;;-3.10;76.70;;;;;;5013671;28;20471;-74
2023/02/10 05:13:32;;;;;;;65.07;34.65;;;-3.10;76.90;;;;;;5013514;28;20030;-74
2023/02/10 05:15:57;;;;;;;64.00;34.58;;;-3.10;77.00;;;;;;5013525;28;20057;-73
2023/02/10 05:18:23;;;;;;;65.47;35.75;;;-3.10;77.00;;;;;;5013561;28;20029;-80
2023/02/10 05:20:48;;;;;;;69.22;34.63;;;-3.00;77.00;;;;;;5013559;28;20064;-75
2023/02/10 05:23:14;;;;;;;69.25;34.88;;;-3.00;77.20;;;;;;5013454;28;20164;-74
2023/02/10 05:25:39;;;;;;;72.35;35.78;;;-3.00;77.30;;;;;;5013463;28;20034;-73
2023/02/10 05:28:05;;;;;;;65.15;34.03;;;-3.00;77.50;;;;;;5013412;28;20045;-73
2023/02/10 05:30:31;;;;;;;70.30;37.25;;;-3.00;77.40;;;;;;5013547;28;20026;-75
2023/02/10 05:32:56;;;;;;;71.65;36.78;;;-2.90;77.30;;;;;;4995847;28;20021;-73
2023/02/10 05:35:22;;;;;;;71.70;36.17;;;-2.90;77.20;;;;;;5013130;28;20037;-74
2023/02/10 05:37:47;;;;;;;61.75;33.38;;;-3.00;77.00;;;;;;5013351;28;20022;-74
2023/02/10 05:40:13;;;;;;;67.88;35.22;;;-2.90;76.90;;;;;;4995805;28;20467;-74
2023/02/10 05:42:38;;;;;;;70.78;35.20;;;-3.00;76.70;;;;;;5013186;28;20033;-74
2023/02/10 05:45:04;;;;;;;68.93;36.80;;;-3.00;77.10;;;;;;5013239;28;20030;-73
2023/02/10 05:47:29;;;;;;;71.88;36.33;;;-3.10;77.30;;;;;;5013208;28;20483;-73
2023/02/10 05:49:55;;;;;;;69.65;35.63;;;-3.00;77.40;;;;;;4995483;28;20037;-73
2023/02/10 05:52:20;;;;;;;70.68;36.58;;;-3.10;77.00;;;;;;5013145;28;20035;-74
2023/02/10 05:54:46;;;;;;;73.45;37.92;;;-3.00;76.90;;;;;;5012556;28;20026;-73
2023/02/10 05:57:11;;;;;;;70.53;39.75;;;-3.10;77.00;;;;;;5013115;28;20096;-74
2023/02/10 05:59:37;;;;;;;68.13;37.65;;;-3.10;77.00;;;;;;5013002;28;20430;-73
2023/02/10 06:02:02;;;;;;;75.78;39.05;;;-3.20;77.20;;;;;;5012797;28;20037;-74
2023/02/10 06:04:28;;;;;;;68.97;38.22;;;-3.20;77.60;;;;;;4995403;28;20026;-74
2023/02/10 06:06:54;;;;;;;70.38;37.88;;;-3.20;78.20;;;;;;5012955;28;20368;-74
2023/02/10 06:09:22;;;;;;;73.68;39.90;;;-3.30;78.90;;;;;;5012833;28;20029;-74
2023/02/10 06:11:49;;;;;;;72.20;41.63;;;-3.20;79.00;;;;;;5012963;28;20026;-74
2023/02/10 06:14:14;;;;;;;75.10;40.72;;;-3.20;79.00;;;;;;5012676;28;20467;-74
2023/02/10 06:16:40;;;;;;;67.50;38.33;;;-3.20;79.00;;;;;;5012836;28;20050;-74
2023/02/10 06:19:05;;;;;;;70.05;39.65;;;-3.20;79.40;;;;;;5012839;28;20474;-74
2023/02/10 06:21:31;;;;;;;75.15;41.67;;;-3.20;79.00;;;;;;4995084;28;20029;-74
2023/02/10 06:23:56;;;;;;;76.47;41.05;;;-3.20;78.90;;;;;;5012962;28;20059;-74
2023/02/10 06:26:22;;;;;;;66.75;39.85;;;-3.20;78.60;;;;;;5012500;28;20060;-74
2023/02/10 06:28:47;;;;;;;76.55;43.38;;;-3.20;78.90;;;;;;5012517;28;20121;-75
2023/02/10 06:31:13;;;;;;;77.50;42.13;;;-3.30;78.90;;;;;;5012344;28;20053;-73
2023/02/10 06:33:39;;;;;;;70.90;40.90;;;-3.20;78.80;;;;;;5012058;28;20022;-73
2023/02/10 06:36:07;;;;;;;70.13;39.97;;;-3.10;78.80;;;;;;5012040;28;20114;-78
2023/02/10 06:38:33;;;;;;;73.03;41.53;;;-3.10;78.50;;;;;;5012391;28;20101;-75
2023/02/10 06:40:59;;;;;;;70.07;40.83;;;-3.20;78.40;;;;;;5012446;28;20032;-75
2023/02/10 06:43:25;;;;;;;74.57;42.03;;;-3.20;78.30;;;;;;5012423;28;20014;-73
2023/02/10 06:45:50;;;;;;;73.30;39.80;;;-3.20;78.50;;;;;;5012388;28;20028;-73
2023/02/10 06:48:16;;;;;;;70.22;40.00;;;-3.10;78.40;;;;;;5012173;28;20054;-73
2023/02/10 06:50:41;;;;;;;69.95;37.83;;;-3.10;78.30;;;;;;4994608;28;20026;-73
2023/02/10 06:53:07;;;;;;;72.15;38.22;;;-3.10;78.10;;;;;;5012299;28;20025;-73
2023/02/10 06:55:33;;;;;;;70.00;39.47;;;-3.00;78.00;;;;;;5012314;28;20030;-74
2023/02/10 06:57:59;;;;;;;73.38;40.42;;;-3.00;77.70;;;;;;5012298;28;20030;-73
2023/02/10 07:00:25;;;;;;;71.22;39.25;;;-3.00;77.60;;;;;;5012406;28;20026;-73
2023/02/10 07:02:50;;;;;;;71.03;39.33;;;-3.00;77.70;;;;;;5012369;28;20029;-73
2023/02/10 07:05:16;;;;;;;68.18;38.78;;;-2.90;77.50;;;;;;5012417;28;20030;-74
2023/02/10 07:07:42;;;;;;;82.72;41.55;;;-3.00;77.30;;;;;;4997518;28;20084;-76
2023/02/10 07:10:08;;;;;;;79.13;39.38;;;-3.00;77.50;;;;;;5015749;28;20487;-75
2023/02/10 07:12:34;;;;;;;85.20;42.42;;;-3.00;77.40;;;;;;4997943;28;20030;-76
2023/02/10 07:15:00;;;;;;;74.80;39.33;;;-3.00;77.40;;;;;;5015511;28;20544;-77
2023/02/10 07:17:26;;;;;;;78.00;38.92;;;-3.00;77.40;;;;;;5015675;28;20356;-75
2023/02/10 07:19:51;;;;;;;76.43;39.70;;;-3.00;77.50;;;;;;5015775;28;20072;-75
2023/02/10 07:22:17;;;;;;;77.82;39.10;;;-3.00;77.60;;;;;;5015499;28;20026;-78
2023/02/10 07:24:42;;;;;;;69.07;37.15;;;-2.90;77.60;;;;;;4997865;28;20165;-76
2023/02/10 07:27:08;;;;;;;80.47;41.38;;;-2.80;77.60;;;;;;5015204;28;20068;-75
2023/02/10 07:29:34;;;;;;;70.55;37.88;;;-2.70;77.50;;;;;;5015300;28;20065;-77
2023/02/10 07:31:59;;;;;;;77.80;37.78;;;-2.70;77.40;;;;;;5015375;28;20021;-75
2023/02/10 07:34:26;;;;;;;70.97;37.55;;;-2.60;77.00;;;;;;4997584;28;20030;-74
2023/02/10 07:36:55;;;;;;;74.68;39.20;;;-2.40;76.20;;;;;;5015329;28;20026;-74
2023/02/10 07:39:21;;;;;;;76.32;39.72;;;-2.40;75.50;;;;;;5015320;28;20018;-74
2023/02/10 07:41:47;;;;;;;70.32;37.40;;;-2.40;74.40;;;;;;5015353;28;20033;-74
2023/02/10 07:44:13;;;;;;;76.85;38.60;;;-2.30;74.20;;;;;;5015256;28;20041;-74
2023/02/10 07:46:39;;;;;;;78.03;39.63;;;-2.40;73.90;;;;;;5015229;28;20041;-74
2023/02/10 07:49:04;;;;;;;70.22;38.97;;;-2.40;74.00;;;;;;5015031;28;20030;-74
2023/02/10 07:51:30;;;;;;;79.05;38.53;;;-2.40;73.70;;;;;;5015013;28;20030;-74
2023/02/10 07:53:56;;;;;;;79.05;39.63;;;-2.40;73.80;;;;;;5014990;28;20034;-74
2023/02/10 07:56:21;;;;;;;80.25;41.30;;;-2.40;73.80;;;;;;5015072;28;20033;-75
2023/02/10 07:58:47;;;;;;;81.50;40.08;;;-2.30;74.70;;;;;;4997367;28;20482;-74
2023/02/10 08:01:12;;;;;;;73.88;38.10;;;-2.20;73.60;;;;;;5014635;28;20032;-74
2023/02/10 08:03:38;;;;;;;74.00;38.80;;;-2.10;73.30;;;;;;5014517;28;20026;-74
2023/02/10 08:06:05;;;;;;;82.00;40.78;;;-2.10;73.30;;;;;;5014599;28;20479;-73
2023/02/10 08:08:30;;;;;;;75.95;39.35;;;-2.10;73.60;;;;;;4996871;28;20497;-76
2023/02/10 08:10:56;;;;;;;76.30;41.92;;;-1.90;73.50;;;;;;5014498;28;20026;-73
2023/02/10 08:13:22;;;;;;;75.70;39.55;;;-1.80;73.10;;;;;;5014530;28;20340;-74
2023/02/10 08:15:48;;;;;;;69.97;39.10;;;-1.60;72.90;;;;;;5014540;28;20049;-73
2023/02/10 08:18:14;;;;;;;74.60;41.78;;;-1.40;72.40;;;;;;5013944;28;20029;-75
2023/02/10 08:20:42;;;;;;;74.25;39.15;;;-1.20;71.70;;;;;;5014328;28;20084;-73
2023/02/10 08:23:14;;;;;;;68.93;37.40;;;-1.00;71.00;;;;;;4998656;28;20022;-74
2023/02/10 08:25:40;;;;;;;67.53;37.08;;;-0.90;70.50;;;;;;5000865;28;20128;-75
2023/02/10 08:28:05;;;;;;;80.30;39.75;;;-0.70;70.20;;;;;;5015267;28;20050;-75
2023/02/10 08:30:31;;;;;;;74.38;40.38;;;-0.50;69.30;;;;;;5014357;28;20063;-74
2023/02/10 08:32:57;;;;;;;71.47;38.90;;;-0.40;68.40;;;;;;5014156;28;20026;-73
2023/02/10 08:35:23;;;;;;;71.20;39.65;;;-0.30;68.10;;;;;;5014109;28;20037;-75
2023/02/10 08:37:48;;;;;;;68.63;39.50;;;-0.20;67.80;;;;;;5014049;28;20056;-73
2023/02/10 08:40:14;;;;;;;70.53;40.30;;;-0.10;67.60;;;;;;5013894;28;20106;-73
2023/02/10 08:42:40;;;;;;;71.60;39.50;;;0.00;67.50;;;;;;5013905;28;20026;-73
2023/02/10 08:45:06;;;;;;;71.32;38.70;;;0.10;67.60;;;;;;5013775;28;20030;-75
2023/02/10 08:47:33;;;;;;;71.75;39.10;;;0.20;68.80;;;;;;5014583;28;20049;-74
2023/02/10 08:49:59;;;;;;;67.78;37.50;;;0.40;68.30;;;;;;5015350;28;20493;-83
2023/02/10 08:52:25;;;;;;;68.70;39.08;;;0.60;67.50;;;;;;5016085;28;20025;-85
2023/02/10 08:54:51;;;;;;;68.47;37.08;;;0.70;66.90;;;;;;5001027;28;20394;-82
2023/02/10 08:57:16;;;;;;;65.72;37.08;;;1.00;66.30;;;;;;5018135;28;20496;-76
2023/02/10 08:59:42;;;;;;;68.20;36.00;;;1.20;66.20;;;;;;5014563;28;20026;-79
2023/02/10 09:02:12;;;;;;;64.72;34.60;;;1.50;65.10;;;;;;5015549;28;20108;-83
2023/02/10 09:04:39;;;;;;;63.42;33.83;;;1.70;64.00;;;;;;5015461;28;20046;-84
2023/02/10 09:07:04;;;;;;;62.13;31.38;;;1.90;62.50;;;;;;5014255;28;20109;-77
2023/02/10 09:09:30;;;;;;;58.65;32.58;;;2.20;64.90;;;;;;5013756;28;20476;-75
2023/02/10 09:11:56;;;;;;;58.50;33.00;;;2.60;64.30;;;;;;5013910;28;20046;-83
2023/02/10 09:14:21;;;;;;;56.03;30.67;;;3.00;62.50;;;;;;5014037;28;20099;-75
2023/02/10 09:16:47;;;;;;;59.92;33.10;;;3.30;60.20;;;;;;5013563;28;20034;-74
2023/02/10 09:19:13;;;;;;;57.95;33.03;;;3.60;58.10;;;;;;5014578;28;20068;-74
2023/02/10 09:21:39;;;;;;;58.92;33.08;;;3.70;57.00;;;;;;5019197;28;20113;-77
2023/02/10 09:24:05;;;;;;;61.92;33.58;;;4.00;56.50;;;;;;5015345;28;20100;-73
2023/02/10 09:26:30;;;;;;;56.97;31.85;;;4.20;55.20;;;;;;5014853;28;20014;-73
2023/02/10 09:28:57;;;;;;;59.25;31.00;;;4.20;53.60;;;;;;4994766;28;20414;-72
2023/02/10 09:31:23;;;;;;;53.78;29.60;;;4.10;53.70;;;;;;5013267;28;20109;-73
2023/02/10 09:33:49;;;;;;;53.53;29.80;;;4.00;53.70;;;;;;5013466;28;20061;-74
2023/02/10 09:36:18;;;;;;;57.30;28.67;;;4.00;53.50;;;;;;5013234;28;20451;-75
2023/02/10 09:38:43;;;;;;;54.35;31.10;;;4.10;53.70;;;;;;5013385;28;20018;-73
2023/02/10 09:41:22;;;;;;;57.03;30.42;;;4.20;53.90;;;;;;5012939;28;20022;-74
2023/02/10 09:44:30;;;;;;;50.70;27.90;;;4.40;53.90;;;;;;5012996;28;20022;-74
2023/02/10 09:47:20;;;;;;;53.50;28.80;;;4.70;53.70;;;;;;4952402;29;20401;-74
2023/02/10 09:50:05;;;;;;;53.38;29.55;;;5.00;53.20;;;;;;4952490;29;20157;-73
2023/02/10 09:52:53;;;;;;;52.50;29.17;;;5.30;53.30;;;;;;4999662;28;20446;-74
2023/02/10 09:55:34;;;;;;;58.10;31.48;;;5.60;51.80;;;;;;5012656;28;20510;-75
2023/02/10 09:58:31;;;;;;;57.53;29.55;;;5.90;50.70;;;;;;5012852;28;20022;-75
2023/02/10 10:01:18;;;;;;;53.72;29.60;;;6.10;49.70;;;;;;4987208;28;20029;-74
2023/02/10 10:03:49;;;;;;;46.45;27.38;;;6.30;47.60;;;;;;5012887;28;20026;-74
2023/02/10 10:06:15;;;;;;;47.22;27.67;;;6.50;46.60;;;;;;5012611;28;20025;-75
2023/02/10 10:09:05;;;;;;;53.08;28.75;;;6.50;46.10;;;;;;4995119;28;20022;-75
2023/02/10 10:11:36;;;;;;;47.53;27.02;;;6.80;46.00;;;;;;5012776;28;20109;-73
2023/02/10 10:14:03;;;;;;;54.10;30.10;;;7.10;46.90;;;;;;5012866;28;20498;-74
2023/02/10 10:17:01;;;;;;;49.88;29.73;;;7.20;44.00;;;;;;5012641;28;20067;-74
2023/02/10 10:20:01;;;;;;;55.33;30.55;;;7.30;44.80;;;;;;5012235;28;20022;-74
2023/02/10 10:23:07;;;;;;;50.28;28.30;;;7.50;43.70;;;;;;5012374;28;20026;-75
2023/02/10 10:25:53;;;;;;;40.00;22.30;;;7.70;43.20;;;;;;5012312;28;20022;-74
2023/02/10 10:28:24;;;;;;;56.97;30.70;;;7.80;43.20;;;;;;5012275;28;20057;-75
2023/02/10 10:31:08;;;;;;;51.08;27.95;;;7.90;42.50;;;;;;5012297;28;20105;-76
2023/02/10 10:33:50;;;;;;;49.88;28.20;;;8.20;42.70;;;;;;5012463;28;20088;-75
2023/02/10 10:36:32;;;;;;;55.03;30.40;;;8.10;42.80;;;;;;5012193;28;20038;-74
2023/02/10 10:39:01;;;;;;;54.08;30.20;;;8.40;42.10;;;;;;5012436;28;20097;-74
2023/02/10 10:41:32;;;;;;;53.17;30.08;;;8.30;41.90;;;;;;5015128;28;20105;-75
2023/02/10 10:43:57;;;;;;;55.78;30.85;;;8.20;43.10;;;;;;5016143;28;20466;-75
2023/02/10 10:46:35;;;;;;;52.72;29.63;;;8.10;41.50;;;;;;5016313;28;20101;-75
2023/02/10 10:49:01;;;;;;;49.15;27.63;;;8.20;41.90;;;;;;5016137;28;20029;-77
2023/02/10 10:51:27;;;;;;;54.13;29.65;;;8.30;42.40;;;;;;5015625;28;20030;-76
2023/02/10 10:53:56;;;;;;;46.85;28.55;;;8.50;40.90;;;;;;5016046;28;20061;-75
2023/02/10 10:56:29;;;;;;;50.58;29.33;;;8.60;40.50;;;;;;5015750;28;20029;-75
2023/02/10 10:58:56;;;;;;;51.85;30.88;;;8.60;39.90;;;;;;5015789;28;20029;-75
2023/02/10 11:01:41;;;;;;;47.05;29.33;;;8.50;40.30;;;;;;5015565;28;20033;-74
2023/02/10 11:04:14;;;;;;;50.25;28.33;;;7.80;41.70;;;;;;5015440;28;20049;-75
2023/02/10 11:06:41;;;;;;;48.85;29.17;;;8.00;42.50;;;;;;4997551;28;20459;-75
2023/02/10 11:09:22;;;;;;;50.28;29.27;;;8.30;41.50;;;;;;5015097;28;20026;-74
2023/02/10 11:11:49;;;;;;;49.00;29.08;;;8.70;40.70;;;;;;5015159;28;20421;-77
2023/02/10 11:14:23;;;;;;;48.65;28.60;;;9.10;39.20;;;;;;5015373;28;20029;-74
2023/02/10 11:16:56;;;;;;;49.30;28.98;;;9.00;38.80;;;;;;5015807;28;20088;-75
2023/02/10 11:19:26;;;;;;;47.90;28.48;;;9.10;38.70;;;;;;5015605;28;20140;-78
2023/02/10 11:21:53;;;;;;;45.15;26.92;;;9.30;37.80;;;;;;5015327;28;20450;-75
2023/02/10 11:24:30;;;;;;;42.42;26.17;;;9.70;38.20;;;;;;5015530;28;20033;-75
2023/02/10 11:27:16;;;;;;;42.92;26.58;;;10.10;37.70;;;;;;5015187;28;20053;-75
2023/02/10 11:29:57;;;;;;;49.03;28.10;;;10.40;36.00;;;;;;5015237;28;20030;-73
2023/02/10 11:32:34;;;;;;;43.15;27.08;;;10.40;35.10;;;;;;5014924;28;20036;-75
2023/02/10 11:35:03;;;;;;;43.03;26.65;;;10.70;35.20;;;;;;5015357;28;20030;-76
2023/02/10 11:37:37;;;;;;;42.35;26.48;;;10.90;34.80;;;;;;4997545;28;20398;-74
2023/02/10 11:40:27;;;;;;;37.95;24.05;;;11.00;34.20;;;;;;5015178;28;20086;-77
2023/02/10 11:42:55;;;;;;;41.05;24.08;;;11.30;37.20;;;;;;4997104;28;20026;-74
2023/02/10 11:45:30;;;;;;;39.92;24.48;;;11.50;36.30;;;;;;5015044;28;20105;-76
2023/02/10 11:48:15;;;;;;;48.58;26.27;;;11.90;36.90;;;;;;5014800;28;20065;-75
2023/02/10 11:50:41;;;;;;;42.08;25.27;;;12.20;33.60;;;;;;5015099;28;20494;-76
2023/02/10 11:53:25;;;;;;;42.95;27.20;;;12.60;33.90;;;;;;5013856;28;20057;-77
2023/02/10 11:56:04;;;;;;;43.15;24.27;;;12.70;31.40;;;;;;5014679;28;20029;-76
2023/02/10 11:59:16;;;;;;;39.55;24.83;;;12.90;31.70;;;;;;5014974;28;20018;-76
2023/02/10 12:01:57;;;;;;;40.10;25.92;;;13.10;32.90;;;;;;4962028;28;20090;-76
2023/02/10 12:04:47;;;;;;;40.30;25.15;;;13.10;29.10;;;;;;5014832;28;20025;-76
2023/02/10 12:07:50;;;;;;;40.53;26.08;;;13.20;30.40;;;;;;4997075;28;20121;-78
2023/02/10 12:10:26;;;;;;;48.97;28.25;;;13.10;29.10;;;;;;5014933;28;20356;-77
2023/02/10 12:12:58;;;;;;;41.00;25.55;;;13.00;30.60;;;;;;4997188;28;20022;-77
2023/02/10 12:15:26;;;;;;;38.58;23.98;;;13.10;30.30;;;;;;5014486;28;20387;-77
2023/02/10 12:18:00;;;;;;;38.83;25.02;;;13.20;30.60;;;;;;5014611;28;20128;-76
2023/02/10 12:21:06;;;;;;;39.45;24.30;;;13.50;30.70;;;;;;5014789;28;20049;-83
2023/02/10 12:23:41;;;;;;;40.27;26.13;;;13.30;29.00;;;;;;5014372;28;20026;-79
2023/02/10 12:26:29;;;;;;;38.63;23.73;;;13.50;29.20;;;;;;5014429;28;20268;-77
2023/02/10 12:29:15;;;;;;;40.08;24.95;;;13.40;30.10;;;;;;5014498;28;20353;-78
2023/02/10 12:32:14;;;;;;;38.53;23.58;;;13.20;28.50;;;;;;5014522;28;20029;-78
2023/02/10 12:35:04;;;;;;;40.38;25.55;;;13.30;29.80;;;;;;4996378;28;20132;-79
2023/02/10 12:38:12;;;;;;;39.30;23.85;;;13.30;28.80;;;;;;5014649;28;20054;-78
2023/02/10 12:41:01;;;;;;;37.47;23.35;;;13.30;29.40;;;;;;4983573;28;20045;-76
2023/02/10 12:43:34;;;;;;;42.33;24.92;;;13.70;29.70;;;;;;5013977;28;20028;-76